sensor_id;sensor_type;location;lat;lon;timestamp;P1;durP1;ratioP1;P2;durP2;ratioP2
19179;SDS011;9722;48.754;8.868;2023-01-08T00:03:17;6.80;;;4.60;;
19179;SDS011;9722;48.754;8.868;2023-01-08T00:06:38;4.87;;;4.37;;
19179;SDS011;9722;48.754;8.868;2023-01-08T00:09:58;5.27;;;4.77;;
19179;SDS011;9722;48.754;8.868;2023-01-08T00:13:19;5.23;;;4.13;;
19179;SDS011;9722;48.754;8.868;2023-01-08T00:16:39;7.07;;;6.43;;
19179;SDS011;9722;48.754;8.868;2023-01-08T00:20:00;6.60;;;5.63;;
19179;SDS011;9722;48.754;8.868;2023-01-08T00:23:20;6.87;;;5.47;;
19179;SDS011;9722;48.754;8.868;2023-01-08T00:26:41;6.70;;;5.80;;
19179;SDS011;9722;48.754;8.868;2023-01-08T00:30:02;4.90;;;4.50;;
19179;SDS011;9722;48.754;8.868;2023-01-08T00:33:23;6.43;;;5.03;;
19179;SDS011;9722;48.754;8.868;2023-01-08T00:36:44;5.00;;;4.60;;
19179;SDS011;9722;48.754;8.868;2023-01-08T00:40:04;4.40;;;4.00;;
19179;SDS011;9722;48.754;8.868;2023-01-08T00:43:25;4.83;;;4.43;;
19179;SDS011;9722;48.754;8.868;2023-01-08T00:46:46;4.90;;;4.50;;
19179;SDS011;9722;48.754;8.868;2023-01-08T00:50:07;4.60;;;4.20;;
19179;SDS011;9722;48.754;8.868;2023-01-08T00:53:28;5.23;;;4.73;;
19179;SDS011;9722;48.754;8.868;2023-01-08T00:56:48;4.30;;;3.90;;
19179;SDS011;9722;48.754;8.868;2023-01-08T01:00:10;5.90;;;4.57;;
19179;SDS011;9722;48.754;8.868;2023-01-08T01:03:33;4.90;;;4.40;;
19179;SDS011;9722;48.754;8.868;2023-01-08T01:06:53;5.13;;;4.60;;
19179;SDS011;9722;48.754;8.868;2023-01-08T01:10:14;4.93;;;4.43;;
19179;SDS011;9722;48.754;8.868;2023-01-08T01:13:36;4.93;;;4.53;;
19179;SDS011;9722;48.754;8.868;2023-01-08T01:16:56;5.07;;;4.57;;
19179;SDS011;9722;48.754;8.868;2023-01-08T01:20:17;4.83;;;4.43;;
19179;SDS011;9722;48.754;8.868;2023-01-08T01:23:37;4.80;;;4.40;;
19179;SDS011;9722;48.754;8.868;2023-01-08T01:26:58;4.77;;;4.27;;
19179;SDS011;9722;48.754;8.868;2023-01-08T01:30:18;5.20;;;4.70;;
19179;SDS011;9722;48.754;8.868;2023-01-08T01:33:39;4.90;;;4.50;;
19179;SDS011;9722;48.754;8.868;2023-01-08T01:37:00;4.67;;;4.27;;
19179;SDS011;9722;48.754;8.868;2023-01-08T01:40:21;5.17;;;4.57;;
19179;SDS011;9722;48.754;8.868;2023-01-08T01:43:42;5.13;;;4.63;;
19179;SDS011;9722;48.754;8.868;2023-01-08T01:50:45;4.80;;;4.40;;
19179;SDS011;9722;48.754;8.868;2023-01-08T01:54:10;5.93;;;4.53;;
19179;SDS011;9722;48.754;8.868;2023-01-08T01:57:32;4.87;;;4.47;;
19179;SDS011;9722;48.754;8.868;2023-01-08T02:00:53;5.37;;;4.57;;
19179;SDS011;9722;48.754;8.868;2023-01-08T02:04:16;4.00;;;3.70;;
19179;SDS011;9722;48.754;8.868;2023-01-08T02:07:40;5.67;;;5.17;;
19179;SDS011;9722;48.754;8.868;2023-01-08T02:18:35;5.10;;;4.60;;
19179;SDS011;9722;48.754;8.868;2023-01-08T02:22:12;4.83;;;4.30;;
19179;SDS011;9722;48.754;8.868;2023-01-08T02:26:01;4.63;;;4.23;;
19179;SDS011;9722;48.754;8.868;2023-01-08T02:29:31;4.87;;;4.47;;
19179;SDS011;9722;48.754;8.868;2023-01-08T02:32:52;4.83;;;4.43;;
19179;SDS011;9722;48.754;8.868;2023-01-08T02:36:28;4.40;;;4.10;;
19179;SDS011;9722;48.754;8.868;2023-01-08T02:40:02;4.13;;;3.83;;
19179;SDS011;9722;48.754;8.868;2023-01-08T02:43:44;3.90;;;3.60;;
19179;SDS011;9722;48.754;8.868;2023-01-08T02:47:12;4.43;;;4.03;;
19179;SDS011;9722;48.754;8.868;2023-01-08T02:50:54;6.00;;;4.10;;
19179;SDS011;9722;48.754;8.868;2023-01-08T02:54:26;3.97;;;3.53;;
19179;SDS011;9722;48.754;8.868;2023-01-08T02:57:51;4.50;;;4.10;;
19179;SDS011;9722;48.754;8.868;2023-01-08T03:01:14;5.00;;;4.37;;
19179;SDS011;9722;48.754;8.868;2023-01-08T03:04:38;5.30;;;4.80;;
19179;SDS011;9722;48.754;8.868;2023-01-08T03:08:04;4.40;;;4.00;;
19179;SDS011;9722;48.754;8.868;2023-01-08T03:11:26;4.70;;;4.27;;
19179;SDS011;9722;48.754;8.868;2023-01-08T03:14:57;5.00;;;4.60;;
19179;SDS011;9722;48.754;8.868;2023-01-08T03:18:21;4.93;;;3.77;;
19179;SDS011;9722;48.754;8.868;2023-01-08T03:21:49;5.80;;;4.23;;
19179;SDS011;9722;48.754;8.868;2023-01-08T03:25:11;4.73;;;4.33;;
19179;SDS011;9722;48.754;8.868;2023-01-08T03:28:38;5.47;;;4.60;;
19179;SDS011;9722;48.754;8.868;2023-01-08T03:32:03;4.67;;;4.27;;
19179;SDS011;9722;48.754;8.868;2023-01-08T03:35:27;4.60;;;4.20;;
19179;SDS011;9722;48.754;8.868;2023-01-08T03:38:51;4.67;;;4.27;;
19179;SDS011;9722;48.754;8.868;2023-01-08T03:42:19;4.67;;;4.13;;
19179;SDS011;9722;48.754;8.868;2023-01-08T03:45:43;4.67;;;4.27;;
19179;SDS011;9722;48.754;8.868;2023-01-08T03:49:10;5.90;;;4.57;;
19179;SDS011;9722;48.754;8.868;2023-01-08T03:52:31;4.23;;;3.90;;
19179;SDS011;9722;48.754;8.868;2023-01-08T03:55:52;4.43;;;4.03;;
19179;SDS011;9722;48.754;8.868;2023-01-08T03:59:13;4.10;;;3.70;;
19179;SDS011;9722;48.754;8.868;2023-01-08T04:02:34;4.50;;;3.87;;
19179;SDS011;9722;48.754;8.868;2023-01-08T04:05:54;5.03;;;4.53;;
19179;SDS011;9722;48.754;8.868;2023-01-08T04:09:18;4.17;;;3.80;;
19179;SDS011;9722;48.754;8.868;2023-01-08T04:12:40;4.57;;;4.17;;
19179;SDS011;9722;48.754;8.868;2023-01-08T04:16:02;4.50;;;3.77;;
19179;SDS011;9722;48.754;8.868;2023-01-08T04:19:22;4.27;;;3.87;;
19179;SDS011;9722;48.754;8.868;2023-01-08T04:22:43;4.10;;;3.80;;
19179;SDS011;9722;48.754;8.868;2023-01-08T04:26:06;4.17;;;3.87;;
19179;SDS011;9722;48.754;8.868;2023-01-08T04:29:27;3.10;;;2.90;;
19179;SDS011;9722;48.754;8.868;2023-01-08T04:32:48;4.00;;;3.60;;
19179;SDS011;9722;48.754;8.868;2023-01-08T04:36:08;3.67;;;3.17;;
19179;SDS011;9722;48.754;8.868;2023-01-08T04:39:29;3.20;;;3.00;;
19179;SDS011;9722;48.754;8.868;2023-01-08T04:42:49;3.33;;;2.97;;
19179;SDS011;9722;48.754;8.868;2023-01-08T04:46:10;3.70;;;3.40;;
19179;SDS011;9722;48.754;8.868;2023-01-08T04:49:30;3.70;;;3.40;;
19179;SDS011;9722;48.754;8.868;2023-01-08T04:52:51;3.07;;;2.87;;
19179;SDS011;9722;48.754;8.868;2023-01-08T04:56:12;3.10;;;2.90;;
19179;SDS011;9722;48.754;8.868;2023-01-08T04:59:33;2.30;;;2.10;;
19179;SDS011;9722;48.754;8.868;2023-01-08T05:02:53;2.40;;;2.20;;
19179;SDS011;9722;48.754;8.868;2023-01-08T05:06:14;2.70;;;2.50;;
19179;SDS011;9722;48.754;8.868;2023-01-08T05:09:34;2.60;;;2.40;;
19179;SDS011;9722;48.754;8.868;2023-01-08T05:12:58;3.07;;;2.03;;
19179;SDS011;9722;48.754;8.868;2023-01-08T05:16:19;2.07;;;1.70;;
19179;SDS011;9722;48.754;8.868;2023-01-08T05:19:40;1.63;;;1.53;;
19179;SDS011;9722;48.754;8.868;2023-01-08T05:23:01;1.43;;;1.33;;
19179;SDS011;9722;48.754;8.868;2023-01-08T05:26:21;1.30;;;1.20;;
19179;SDS011;9722;48.754;8.868;2023-01-08T05:29:42;1.37;;;1.27;;
19179;SDS011;9722;48.754;8.868;2023-01-08T05:33:02;1.17;;;1.00;;
19179;SDS011;9722;48.754;8.868;2023-01-08T05:36:23;1.43;;;1.10;;
19179;SDS011;9722;48.754;8.868;2023-01-08T05:39:43;1.10;;;1.10;;
19179;SDS011;9722;48.754;8.868;2023-01-08T05:43:04;1.93;;;1.30;;
19179;SDS011;9722;48.754;8.868;2023-01-08T05:46:24;0.90;;;0.90;;
19179;SDS011;9722;48.754;8.868;2023-01-08T05:49:45;1.63;;;1.00;;
19179;SDS011;9722;48.754;8.868;2023-01-08T05:53:06;1.13;;;1.03;;
19179;SDS011;9722;48.754;8.868;2023-01-08T05:56:27;1.00;;;0.90;;
19179;SDS011;9722;48.754;8.868;2023-01-08T05:59:48;1.00;;;0.90;;
19179;SDS011;9722;48.754;8.868;2023-01-08T06:03:08;0.80;;;0.80;;
19179;SDS011;9722;48.754;8.868;2023-01-08T06:06:29;1.10;;;0.77;;
19179;SDS011;9722;48.754;8.868;2023-01-08T06:09:49;0.63;;;0.63;;
19179;SDS011;9722;48.754;8.868;2023-01-08T06:13:10;0.90;;;0.80;;
19179;SDS011;9722;48.754;8.868;2023-01-08T06:16:30;0.97;;;0.73;;
19179;SDS011;9722;48.754;8.868;2023-01-08T06:19:51;0.80;;;0.80;;
19179;SDS011;9722;48.754;8.868;2023-01-08T06:23:11;0.60;;;0.60;;
19179;SDS011;9722;48.754;8.868;2023-01-08T06:26:32;0.97;;;0.77;;
19179;SDS011;9722;48.754;8.868;2023-01-08T06:29:52;0.40;;;0.40;;
19179;SDS011;9722;48.754;8.868;2023-01-08T06:33:13;1.30;;;0.80;;
19179;SDS011;9722;48.754;8.868;2023-01-08T06:36:33;0.83;;;0.83;;
19179;SDS011;9722;48.754;8.868;2023-01-08T06:39:54;0.60;;;0.60;;
19179;SDS011;9722;48.754;8.868;2023-01-08T06:43:14;0.80;;;0.80;;
19179;SDS011;9722;48.754;8.868;2023-01-08T06:46:36;0.80;;;0.80;;
19179;SDS011;9722;48.754;8.868;2023-01-08T06:49:59;0.50;;;0.50;;
19179;SDS011;9722;48.754;8.868;2023-01-08T06:53:19;0.50;;;0.50;;
19179;SDS011;9722;48.754;8.868;2023-01-08T06:56:40;0.70;;;0.70;;
19179;SDS011;9722;48.754;8.868;2023-01-08T07:00:00;0.50;;;0.50;;
19179;SDS011;9722;48.754;8.868;2023-01-08T07:03:21;0.60;;;0.60;;
19179;SDS011;9722;48.754;8.868;2023-01-08T07:06:41;1.70;;;0.50;;
19179;SDS011;9722;48.754;8.868;2023-01-08T07:10:02;0.50;;;0.50;;
19179;SDS011;9722;48.754;8.868;2023-01-08T07:13:23;0.63;;;0.63;;
19179;SDS011;9722;48.754;8.868;2023-01-08T07:16:43;0.40;;;0.40;;
19179;SDS011;9722;48.754;8.868;2023-01-08T07:20:04;0.50;;;0.50;;
19179;SDS011;9722;48.754;8.868;2023-01-08T07:23:25;0.50;;;0.50;;
19179;SDS011;9722;48.754;8.868;2023-01-08T07:26:46;1.03;;;0.40;;
19179;SDS011;9722;48.754;8.868;2023-01-08T07:30:06;0.60;;;0.60;;
19179;SDS011;9722;48.754;8.868;2023-01-08T07:33:27;0.80;;;0.60;;
19179;SDS011;9722;48.754;8.868;2023-01-08T07:36:48;0.70;;;0.70;;
19179;SDS011;9722;48.754;8.868;2023-01-08T07:40:10;0.67;;;0.67;;
19179;SDS011;9722;48.754;8.868;2023-01-08T07:43:31;0.67;;;0.40;;
19179;SDS011;9722;48.754;8.868;2023-01-08T07:46:54;0.50;;;0.50;;
19179;SDS011;9722;48.754;8.868;2023-01-08T07:50:14;0.47;;;0.47;;
19179;SDS011;9722;48.754;8.868;2023-01-08T07:53:35;0.50;;;0.50;;
19179;SDS011;9722;48.754;8.868;2023-01-08T07:56:56;0.40;;;0.40;;
19179;SDS011;9722;48.754;8.868;2023-01-08T08:00:17;0.50;;;0.50;;
19179;SDS011;9722;48.754;8.868;2023-01-08T08:03:38;0.63;;;0.40;;
19179;SDS011;9722;48.754;8.868;2023-01-08T08:06:58;0.37;;;0.37;;
19179;SDS011;9722;48.754;8.868;2023-01-08T08:10:19;0.40;;;0.40;;
19179;SDS011;9722;48.754;8.868;2023-01-08T08:13:39;1.03;;;0.50;;
19179;SDS011;9722;48.754;8.868;2023-01-08T08:17:03;2.50;;;2.30;;
19179;SDS011;9722;48.754;8.868;2023-01-08T08:20:24;0.57;;;0.57;;
19179;SDS011;9722;48.754;8.868;2023-01-08T08:23:45;0.70;;;0.70;;
19179;SDS011;9722;48.754;8.868;2023-01-08T08:27:05;0.50;;;0.50;;
19179;SDS011;9722;48.754;8.868;2023-01-08T08:30:26;0.30;;;0.30;;
19179;SDS011;9722;48.754;8.868;2023-01-08T08:33:48;0.30;;;0.30;;
19179;SDS011;9722;48.754;8.868;2023-01-08T08:37:08;0.50;;;0.50;;
19179;SDS011;9722;48.754;8.868;2023-01-08T08:40:29;0.70;;;0.50;;
19179;SDS011;9722;48.754;8.868;2023-01-08T08:43:49;1.17;;;0.40;;
19179;SDS011;9722;48.754;8.868;2023-01-08T08:47:10;1.20;;;1.00;;
19179;SDS011;9722;48.754;8.868;2023-01-08T08:50:31;0.40;;;0.40;;
19179;SDS011;9722;48.754;8.868;2023-01-08T08:53:51;0.50;;;0.50;;
19179;SDS011;9722;48.754;8.868;2023-01-08T08:57:12;0.40;;;0.40;;
19179;SDS011;9722;48.754;8.868;2023-01-08T09:00:32;0.50;;;0.50;;
19179;SDS011;9722;48.754;8.868;2023-01-08T09:03:53;0.40;;;0.40;;
19179;SDS011;9722;48.754;8.868;2023-01-08T09:07:13;0.47;;;0.43;;
19179;SDS011;9722;48.754;8.868;2023-01-08T09:10:38;0.40;;;0.40;;
19179;SDS011;9722;48.754;8.868;2023-01-08T09:14:01;0.87;;;0.40;;
19179;SDS011;9722;48.754;8.868;2023-01-08T09:17:21;0.57;;;0.50;;
19179;SDS011;9722;48.754;8.868;2023-01-08T09:20:42;0.40;;;0.40;;
19179;SDS011;9722;48.754;8.868;2023-01-08T09:24:03;0.50;;;0.50;;
19179;SDS011;9722;48.754;8.868;2023-01-08T09:27:23;0.40;;;0.40;;
19179;SDS011;9722;48.754;8.868;2023-01-08T09:30:44;0.50;;;0.50;;
19179;SDS011;9722;48.754;8.868;2023-01-08T09:34:04;0.40;;;0.40;;
19179;SDS011;9722;48.754;8.868;2023-01-08T09:37:25;0.50;;;0.50;;
19179;SDS011;9722;48.754;8.868;2023-01-08T09:44:17;1.23;;;0.90;;
19179;SDS011;9722;48.754;8.868;2023-01-08T09:47:41;0.57;;;0.57;;
19179;SDS011;9722;48.754;8.868;2023-01-08T09:51:03;0.60;;;0.60;;
19179;SDS011;9722;48.754;8.868;2023-01-08T09:54:24;0.70;;;0.70;;
19179;SDS011;9722;48.754;8.868;2023-01-08T09:57:46;0.87;;;0.70;;
19179;SDS011;9722;48.754;8.868;2023-01-08T10:01:08;0.70;;;0.63;;
19179;SDS011;9722;48.754;8.868;2023-01-08T10:04:32;0.97;;;0.77;;
19179;SDS011;9722;48.754;8.868;2023-01-08T10:07:53;0.77;;;0.70;;
19179;SDS011;9722;48.754;8.868;2023-01-08T10:11:14;0.70;;;0.70;;
19179;SDS011;9722;48.754;8.868;2023-01-08T10:14:36;0.63;;;0.63;;
19179;SDS011;9722;48.754;8.868;2023-01-08T10:18:16;0.50;;;0.50;;
19179;SDS011;9722;48.754;8.868;2023-01-08T10:21:38;0.70;;;0.70;;
19179;SDS011;9722;48.754;8.868;2023-01-08T10:25:33;0.90;;;0.70;;
19179;SDS011;9722;48.754;8.868;2023-01-08T10:28:47;1.23;;;0.90;;
19179;SDS011;9722;48.754;8.868;2023-01-08T10:32:09;0.73;;;0.73;;
19179;SDS011;9722;48.754;8.868;2023-01-08T10:35:37;1.33;;;1.23;;
19179;SDS011;9722;48.754;8.868;2023-01-08T10:38:59;0.63;;;0.63;;
19179;SDS011;9722;48.754;8.868;2023-01-08T10:42:22;0.80;;;0.80;;
19179;SDS011;9722;48.754;8.868;2023-01-08T10:45:43;0.73;;;0.73;;
19179;SDS011;9722;48.754;8.868;2023-01-08T10:52:57;0.80;;;0.80;;
19179;SDS011;9722;48.754;8.868;2023-01-08T10:59:44;0.90;;;0.50;;
19179;SDS011;9722;48.754;8.868;2023-01-08T11:03:05;0.60;;;0.60;;
19179;SDS011;9722;48.754;8.868;2023-01-08T11:06:28;0.50;;;0.50;;
19179;SDS011;9722;48.754;8.868;2023-01-08T11:09:51;0.50;;;0.50;;
19179;SDS011;9722;48.754;8.868;2023-01-08T11:13:16;0.60;;;0.60;;
19179;SDS011;9722;48.754;8.868;2023-01-08T11:16:38;0.93;;;0.90;;
19179;SDS011;9722;48.754;8.868;2023-01-08T11:20:33;1.20;;;0.90;;
19179;SDS011;9722;48.754;8.868;2023-01-08T11:27:40;2.63;;;0.63;;
19179;SDS011;9722;48.754;8.868;2023-01-08T11:31:06;1.23;;;1.13;;
19179;SDS011;9722;48.754;8.868;2023-01-08T11:38:10;0.47;;;0.40;;
19179;SDS011;9722;48.754;8.868;2023-01-08T11:41:46;0.40;;;0.40;;
19179;SDS011;9722;48.754;8.868;2023-01-08T11:49:22;0.30;;;0.30;;
19179;SDS011;9722;48.754;8.868;2023-01-08T12:00:37;0.97;;;0.30;;
19179;SDS011;9722;48.754;8.868;2023-01-08T12:11:13;0.27;;;0.27;;
19179;SDS011;9722;48.754;8.868;2023-01-08T12:18:20;1.53;;;1.33;;
19179;SDS011;9722;48.754;8.868;2023-01-08T12:22:00;1.53;;;1.00;;
19179;SDS011;9722;48.754;8.868;2023-01-08T12:25:36;0.93;;;0.80;;
19179;SDS011;9722;48.754;8.868;2023-01-08T12:29:12;0.40;;;0.40;;
19179;SDS011;9722;48.754;8.868;2023-01-08T12:32:42;0.57;;;0.50;;
19179;SDS011;9722;48.754;8.868;2023-01-08T12:36:08;0.80;;;0.60;;
19179;SDS011;9722;48.754;8.868;2023-01-08T12:39:36;1.17;;;0.47;;
19179;SDS011;9722;48.754;8.868;2023-01-08T12:46:47;0.50;;;0.50;;
19179;SDS011;9722;48.754;8.868;2023-01-08T12:50:17;0.40;;;0.40;;
19179;SDS011;9722;48.754;8.868;2023-01-08T12:57:11;0.33;;;0.33;;
19179;SDS011;9722;48.754;8.868;2023-01-08T13:00:38;0.43;;;0.33;;
19179;SDS011;9722;48.754;8.868;2023-01-08T13:04:10;0.60;;;0.40;;
19179;SDS011;9722;48.754;8.868;2023-01-08T13:07:35;1.43;;;0.67;;
19179;SDS011;9722;48.754;8.868;2023-01-08T13:11:01;0.80;;;0.50;;
19179;SDS011;9722;48.754;8.868;2023-01-08T13:14:23;0.60;;;0.43;;
19179;SDS011;9722;48.754;8.868;2023-01-08T13:17:46;0.37;;;0.33;;
19179;SDS011;9722;48.754;8.868;2023-01-08T13:21:09;1.40;;;1.30;;
19179;SDS011;9722;48.754;8.868;2023-01-08T13:24:32;0.80;;;0.60;;
19179;SDS011;9722;48.754;8.868;2023-01-08T13:27:55;0.90;;;0.80;;
19179;SDS011;9722;48.754;8.868;2023-01-08T13:34:39;0.80;;;0.80;;
19179;SDS011;9722;48.754;8.868;2023-01-08T13:38:11;0.60;;;0.60;;
19179;SDS011;9722;48.754;8.868;2023-01-08T13:41:37;0.80;;;0.80;;
19179;SDS011;9722;48.754;8.868;2023-01-08T13:45:03;0.80;;;0.80;;
19179;SDS011;9722;48.754;8.868;2023-01-08T13:48:25;0.90;;;0.90;;
19179;SDS011;9722;48.754;8.868;2023-01-08T13:51:48;1.33;;;1.00;;
19179;SDS011;9722;48.754;8.868;2023-01-08T13:55:28;1.50;;;1.40;;
19179;SDS011;9722;48.754;8.868;2023-01-08T13:58:51;1.00;;;1.00;;
19179;SDS011;9722;48.754;8.868;2023-01-08T14:02:20;0.70;;;0.70;;
19179;SDS011;9722;48.754;8.868;2023-01-08T14:05:41;0.80;;;0.80;;
19179;SDS011;9722;48.754;8.868;2023-01-08T14:09:02;0.70;;;0.70;;
19179;SDS011;9722;48.754;8.868;2023-01-08T14:12:24;1.60;;;0.97;;
19179;SDS011;9722;48.754;8.868;2023-01-08T14:15:44;1.10;;;0.93;;
19179;SDS011;9722;48.754;8.868;2023-01-08T14:19:06;1.20;;;1.10;;
19179;SDS011;9722;48.754;8.868;2023-01-08T14:22:30;0.93;;;0.67;;
19179;SDS011;9722;48.754;8.868;2023-01-08T14:25:52;1.00;;;0.90;;
19179;SDS011;9722;48.754;8.868;2023-01-08T14:29:14;0.93;;;0.93;;
19179;SDS011;9722;48.754;8.868;2023-01-08T14:32:37;0.80;;;0.80;;
19179;SDS011;9722;48.754;8.868;2023-01-08T14:36:02;0.87;;;0.87;;
19179;SDS011;9722;48.754;8.868;2023-01-08T14:39:32;0.90;;;0.73;;
19179;SDS011;9722;48.754;8.868;2023-01-08T14:42:54;3.27;;;2.30;;
19179;SDS011;9722;48.754;8.868;2023-01-08T14:46:18;1.47;;;1.20;;
19179;SDS011;9722;48.754;8.868;2023-01-08T14:49:48;1.20;;;0.90;;
19179;SDS011;9722;48.754;8.868;2023-01-08T14:53:16;2.67;;;1.43;;
19179;SDS011;9722;48.754;8.868;2023-01-08T14:57:13;1.97;;;1.20;;
19179;SDS011;9722;48.754;8.868;2023-01-08T15:00:34;1.27;;;0.93;;
19179;SDS011;9722;48.754;8.868;2023-01-08T15:04:04;2.10;;;1.57;;
19179;SDS011;9722;48.754;8.868;2023-01-08T15:07:28;2.73;;;1.93;;
19179;SDS011;9722;48.754;8.868;2023-01-08T15:10:58;2.37;;;1.20;;
19179;SDS011;9722;48.754;8.868;2023-01-08T15:14:42;2.93;;;2.20;;
19179;SDS011;9722;48.754;8.868;2023-01-08T15:18:04;2.77;;;2.07;;
19179;SDS011;9722;48.754;8.868;2023-01-08T15:21:26;1.57;;;1.40;;
19179;SDS011;9722;48.754;8.868;2023-01-08T15:24:53;1.17;;;1.07;;
19179;SDS011;9722;48.754;8.868;2023-01-08T15:28:19;1.67;;;0.97;;
19179;SDS011;9722;48.754;8.868;2023-01-08T15:35:01;2.20;;;1.70;;
19179;SDS011;9722;48.754;8.868;2023-01-08T15:38:35;2.13;;;1.53;;
19179;SDS011;9722;48.754;8.868;2023-01-08T15:41:55;3.83;;;1.87;;
19179;SDS011;9722;48.754;8.868;2023-01-08T15:45:39;1.27;;;1.10;;
19179;SDS011;9722;48.754;8.868;2023-01-08T15:49:01;4.37;;;2.00;;
19179;SDS011;9722;48.754;8.868;2023-01-08T15:52:22;2.97;;;2.67;;
19179;SDS011;9722;48.754;8.868;2023-01-08T15:55:49;3.13;;;2.80;;
19179;SDS011;9722;48.754;8.868;2023-01-08T15:59:10;2.90;;;2.60;;
19179;SDS011;9722;48.754;8.868;2023-01-08T16:02:38;1.80;;;1.70;;
19179;SDS011;9722;48.754;8.868;2023-01-08T16:06:06;2.73;;;1.83;;
19179;SDS011;9722;48.754;8.868;2023-01-08T16:09:27;2.80;;;2.47;;
19179;SDS011;9722;48.754;8.868;2023-01-08T16:12:48;2.27;;;2.07;;
19179;SDS011;9722;48.754;8.868;2023-01-08T16:16:09;4.57;;;2.73;;
19179;SDS011;9722;48.754;8.868;2023-01-08T16:19:31;3.07;;;2.30;;
19179;SDS011;9722;48.754;8.868;2023-01-08T16:22:52;2.93;;;2.10;;
19179;SDS011;9722;48.754;8.868;2023-01-08T16:26:14;3.33;;;2.70;;
19179;SDS011;9722;48.754;8.868;2023-01-08T16:29:35;1.73;;;1.63;;
19179;SDS011;9722;48.754;8.868;2023-01-08T16:32:55;9.97;;;9.00;;
19179;SDS011;9722;48.754;8.868;2023-01-08T16:36:16;3.30;;;3.10;;
19179;SDS011;9722;48.754;8.868;2023-01-08T16:39:36;2.23;;;2.03;;
19179;SDS011;9722;48.754;8.868;2023-01-08T16:42:59;3.10;;;2.90;;
19179;SDS011;9722;48.754;8.868;2023-01-08T16:46:22;12.93;;;11.80;;
19179;SDS011;9722;48.754;8.868;2023-01-08T16:49:43;12.40;;;11.20;;
19179;SDS011;9722;48.754;8.868;2023-01-08T16:53:03;34.97;;;24.73;;
19179;SDS011;9722;48.754;8.868;2023-01-08T16:56:24;42.57;;;27.73;;
19179;SDS011;9722;48.754;8.868;2023-01-08T16:59:44;33.70;;;20.57;;
19179;SDS011;9722;48.754;8.868;2023-01-08T17:03:05;21.83;;;19.27;;
19179;SDS011;9722;48.754;8.868;2023-01-08T17:06:25;11.23;;;9.13;;
19179;SDS011;9722;48.754;8.868;2023-01-08T17:09:47;8.27;;;7.13;;
19179;SDS011;9722;48.754;8.868;2023-01-08T17:13:07;8.13;;;7.33;;
19179;SDS011;9722;48.754;8.868;2023-01-08T17:16:28;3.30;;;3.00;;
19179;SDS011;9722;48.754;8.868;2023-01-08T17:19:49;11.10;;;9.90;;
19179;SDS011;9722;48.754;8.868;2023-01-08T17:23:09;3.47;;;3.03;;
19179;SDS011;9722;48.754;8.868;2023-01-08T17:26:30;4.27;;;3.70;;
19179;SDS011;9722;48.754;8.868;2023-01-08T17:29:50;8.90;;;8.13;;
19179;SDS011;9722;48.754;8.868;2023-01-08T17:33:11;12.10;;;9.43;;
19179;SDS011;9722;48.754;8.868;2023-01-08T17:36:32;11.50;;;7.40;;
19179;SDS011;9722;48.754;8.868;2023-01-08T17:39:53;11.13;;;9.23;;
19179;SDS011;9722;48.754;8.868;2023-01-08T17:43:13;7.20;;;6.40;;
19179;SDS011;9722;48.754;8.868;2023-01-08T17:46:38;7.20;;;6.27;;
19179;SDS011;9722;48.754;8.868;2023-01-08T17:50:04;7.57;;;6.53;;
19179;SDS011;9722;48.754;8.868;2023-01-08T17:53:25;4.97;;;4.40;;
19179;SDS011;9722;48.754;8.868;2023-01-08T17:56:46;7.13;;;6.23;;
19179;SDS011;9722;48.754;8.868;2023-01-08T18:00:08;6.23;;;5.27;;
19179;SDS011;9722;48.754;8.868;2023-01-08T18:03:29;6.27;;;5.77;;
19179;SDS011;9722;48.754;8.868;2023-01-08T18:06:49;5.43;;;5.03;;
19179;SDS011;9722;48.754;8.868;2023-01-08T18:10:10;7.77;;;3.23;;
19179;SDS011;9722;48.754;8.868;2023-01-08T18:13:32;6.97;;;6.37;;
19179;SDS011;9722;48.754;8.868;2023-01-08T18:16:52;5.53;;;4.37;;
19179;SDS011;9722;48.754;8.868;2023-01-08T18:20:13;3.50;;;3.20;;
19179;SDS011;9722;48.754;8.868;2023-01-08T18:23:33;11.10;;;8.13;;
19179;SDS011;9722;48.754;8.868;2023-01-08T18:26:54;3.80;;;3.43;;
19179;SDS011;9722;48.754;8.868;2023-01-08T18:30:14;3.30;;;2.73;;
19179;SDS011;9722;48.754;8.868;2023-01-08T18:33:35;6.23;;;5.27;;
19179;SDS011;9722;48.754;8.868;2023-01-08T18:36:56;20.47;;;18.37;;
19179;SDS011;9722;48.754;8.868;2023-01-08T18:40:17;12.10;;;10.93;;
19179;SDS011;9722;48.754;8.868;2023-01-08T18:43:40;9.23;;;8.40;;
19179;SDS011;9722;48.754;8.868;2023-01-08T18:47:00;12.13;;;10.47;;
19179;SDS011;9722;48.754;8.868;2023-01-08T18:50:20;5.80;;;5.30;;
19179;SDS011;9722;48.754;8.868;2023-01-08T18:53:41;4.97;;;4.40;;
19179;SDS011;9722;48.754;8.868;2023-01-08T18:57:01;8.30;;;6.87;;
19179;SDS011;9722;48.754;8.868;2023-01-08T19:00:22;4.73;;;4.33;;
19179;SDS011;9722;48.754;8.868;2023-01-08T19:03:45;3.50;;;3.20;;
19179;SDS011;9722;48.754;8.868;2023-01-08T19:07:05;3.50;;;3.20;;
19179;SDS011;9722;48.754;8.868;2023-01-08T19:10:26;3.90;;;3.50;;
19179;SDS011;9722;48.754;8.868;2023-01-08T19:13:46;5.93;;;5.47;;
19179;SDS011;9722;48.754;8.868;2023-01-08T19:17:07;4.53;;;4.13;;
19179;SDS011;9722;48.754;8.868;2023-01-08T19:20:27;4.03;;;3.70;;
19179;SDS011;9722;48.754;8.868;2023-01-08T19:23:48;4.50;;;4.10;;
19179;SDS011;9722;48.754;8.868;2023-01-08T19:27:08;4.80;;;4.30;;
19179;SDS011;9722;48.754;8.868;2023-01-08T19:30:29;3.93;;;3.63;;
19179;SDS011;9722;48.754;8.868;2023-01-08T19:33:50;7.67;;;6.13;;
19179;SDS011;9722;48.754;8.868;2023-01-08T19:37:11;6.80;;;6.07;;
19179;SDS011;9722;48.754;8.868;2023-01-08T19:40:33;5.50;;;5.00;;
19179;SDS011;9722;48.754;8.868;2023-01-08T19:43:54;11.67;;;9.33;;
19179;SDS011;9722;48.754;8.868;2023-01-08T19:47:15;5.43;;;4.90;;
19179;SDS011;9722;48.754;8.868;2023-01-08T19:50:36;4.13;;;3.73;;
19179;SDS011;9722;48.754;8.868;2023-01-08T19:53:57;2.67;;;2.47;;
19179;SDS011;9722;48.754;8.868;2023-01-08T19:57:18;3.13;;;2.83;;
19179;SDS011;9722;48.754;8.868;2023-01-08T20:00:38;2.80;;;2.60;;
19179;SDS011;9722;48.754;8.868;2023-01-08T20:03:59;5.93;;;4.10;;
19179;SDS011;9722;48.754;8.868;2023-01-08T20:07:20;4.40;;;4.00;;
19179;SDS011;9722;48.754;8.868;2023-01-08T20:10:40;5.77;;;4.23;;
19179;SDS011;9722;48.754;8.868;2023-01-08T20:14:01;4.80;;;4.40;;
19179;SDS011;9722;48.754;8.868;2023-01-08T20:17:24;2.60;;;2.40;;
19179;SDS011;9722;48.754;8.868;2023-01-08T20:20:44;9.60;;;6.87;;
19179;SDS011;9722;48.754;8.868;2023-01-08T20:24:05;7.27;;;5.57;;
19179;SDS011;9722;48.754;8.868;2023-01-08T20:27:30;9.43;;;7.13;;
19179;SDS011;9722;48.754;8.868;2023-01-08T20:30:51;3.30;;;2.93;;
19179;SDS011;9722;48.754;8.868;2023-01-08T20:34:12;15.67;;;10.50;;
19179;SDS011;9722;48.754;8.868;2023-01-08T20:37:34;7.83;;;4.97;;
19179;SDS011;9722;48.754;8.868;2023-01-08T20:40:55;10.80;;;7.03;;
19179;SDS011;9722;48.754;8.868;2023-01-08T20:44:16;9.47;;;6.30;;
19179;SDS011;9722;48.754;8.868;2023-01-08T20:47:36;15.90;;;9.93;;
19179;SDS011;9722;48.754;8.868;2023-01-08T20:51:01;10.17;;;6.03;;
19179;SDS011;9722;48.754;8.868;2023-01-08T20:54:23;1.80;;;1.70;;
19179;SDS011;9722;48.754;8.868;2023-01-08T20:57:43;5.07;;;4.23;;
19179;SDS011;9722;48.754;8.868;2023-01-08T21:04:25;2.60;;;2.40;;
19179;SDS011;9722;48.754;8.868;2023-01-08T21:07:45;3.27;;;2.00;;
19179;SDS011;9722;48.754;8.868;2023-01-08T21:11:06;1.77;;;1.67;;
19179;SDS011;9722;48.754;8.868;2023-01-08T21:14:28;2.90;;;2.70;;
19179;SDS011;9722;48.754;8.868;2023-01-08T21:17:48;2.10;;;1.90;;
19179;SDS011;9722;48.754;8.868;2023-01-08T21:21:10;2.37;;;1.50;;
19179;SDS011;9722;48.754;8.868;2023-01-08T21:24:31;2.77;;;2.00;;
19179;SDS011;9722;48.754;8.868;2023-01-08T21:27:51;2.23;;;2.07;;
19179;SDS011;9722;48.754;8.868;2023-01-08T21:31:13;2.93;;;2.60;;
19179;SDS011;9722;48.754;8.868;2023-01-08T21:34:38;6.03;;;4.20;;
19179;SDS011;9722;48.754;8.868;2023-01-08T21:37:58;4.97;;;3.63;;
19179;SDS011;9722;48.754;8.868;2023-01-08T21:41:20;4.27;;;3.60;;
19179;SDS011;9722;48.754;8.868;2023-01-08T21:45:00;2.87;;;2.67;;
19179;SDS011;9722;48.754;8.868;2023-01-08T21:48:39;2.67;;;2.47;;
19179;SDS011;9722;48.754;8.868;2023-01-08T21:52:00;4.40;;;2.17;;